SHMÚ vydal meteorologické výstrahy na WindGround ice Display warnings

TAF

Aerodrome Forecast TAF

TAF description (Slovak)

09.12.2016 - 23:00 UTC (Včera)

TAF AMD LZKZ 100049Z 1000/1100 21005KT 1500 BR OVC004
    TEMPO 1000/1008 VRB02KT 0200 FZFG OVC001
    BECMG 1008/1010 3500 BR SCT005 OVC010
    PROB40 TEMPO 1010/1100 7000 -SN SCT008 BKN015=

09.12.2016 - 23:00 UTC (Včera)

TAF LZSL 092300Z 1000/1009 VRB02KT 8000 BKN025
    TEMPO 1002/1008 1500 BCFG BKN003=
TAF LZZI 092300Z 1000/1009 VRB02KT 3500 BR OVC010
    TEMPO 1000/1009 1200 OVC002
    PROB30 TEMPO 1002/1008 0300 FG OVC001=

skok na menu ↑


skok na začiatok stránky ↑